Time;durP1;ratioP1;P1;durP2;ratioP2;P2;SDS_P1;SDS_P2;PMS_P1;PMS_P2;Temp;Humidity;BMP_temperature;BMP_pressure;BME280_temperature;BME280_humidity;BME280_pressure;Samples;Min_cycle;Max_cycle;Signal;HPM_P1;HPM_P2
2022/04/13 00:01:45;;;;;;;3.37;3.08;;;8.50;64.10;;;;;;602891;236;26889;-68
2022/04/13 00:04:12;;;;;;;4.87;3.50;;;8.50;66.50;;;;;;601550;238;26643;-67
2022/04/13 00:06:39;;;;;;;4.43;3.40;;;8.50;65.90;;;;;;603587;235;26899;-67
2022/04/13 00:09:07;;;;;;;5.90;3.20;;;8.50;65.40;;;;;;612384;235;26606;-67
2022/04/13 00:11:34;;;;;;;3.95;3.37;;;8.50;69.00;;;;;;610642;235;27540;-67
2022/04/13 00:14:01;;;;;;;3.42;3.12;;;8.50;65.50;;;;;;601039;238;26633;-67
2022/04/13 00:16:28;;;;;;;4.07;3.67;;;8.50;62.70;;;;;;601829;236;26887;-68
2022/04/13 00:18:56;;;;;;;3.20;3.00;;;8.50;68.30;;;;;;602854;235;26634;-68
2022/04/13 00:21:24;;;;;;;4.30;3.28;;;8.40;66.80;;;;;;602599;236;26649;-68
2022/04/13 00:23:51;;;;;;;5.30;3.10;;;8.40;67.10;;;;;;602817;236;26598;-68
2022/04/13 00:26:20;;;;;;;3.45;3.15;;;8.40;66.60;;;;;;605293;234;26610;-67
2022/04/13 00:28:48;;;;;;;4.95;3.40;;;8.40;66.60;;;;;;610678;235;26672;-68
2022/04/13 00:31:15;;;;;;;3.95;3.30;;;8.40;66.50;;;;;;607480;235;26880;-67
2022/04/13 00:33:43;;;;;;;3.50;3.20;;;8.40;66.90;;;;;;610747;235;26825;-67
2022/04/13 00:36:10;;;;;;;4.00;3.70;;;8.30;66.50;;;;;;610200;234;26618;-68
2022/04/13 00:38:38;;;;;;;3.10;2.90;;;8.40;65.00;;;;;;604910;238;26894;-68
2022/04/13 00:41:06;;;;;;;4.32;3.28;;;8.40;63.50;;;;;;605233;236;26642;-68
2022/04/13 00:43:34;;;;;;;4.55;3.08;;;8.30;68.30;;;;;;603469;236;26971;-68
2022/04/13 00:46:01;;;;;;;3.55;3.22;;;8.30;64.90;;;;;;608272;235;26620;-68
2022/04/13 00:48:31;;;;;;;4.53;3.60;;;8.30;64.50;;;;;;603399;236;26835;-68
2022/04/13 00:50:58;;;;;;;3.53;3.22;;;8.30;67.50;;;;;;602221;238;26815;-68
2022/04/13 00:53:25;;;;;;;3.80;3.37;;;8.20;66.90;;;;;;604835;236;26593;-68
2022/04/13 00:55:55;;;;;;;3.12;2.87;;;8.20;67.50;;;;;;604579;236;26849;-68
2022/04/13 00:58:23;;;;;;;4.10;3.05;;;8.20;65.90;;;;;;608665;236;26640;-68
2022/04/13 01:00:50;;;;;;;4.62;3.58;;;8.10;65.30;;;;;;609358;235;26879;-68
2022/04/13 01:03:18;;;;;;;4.40;3.30;;;8.10;66.70;;;;;;603361;236;26580;-68
2022/04/13 01:05:46;;;;;;;3.70;3.40;;;8.10;67.40;;;;;;607427;236;26680;-68
2022/04/13 01:08:14;;;;;;;3.62;3.28;;;8.00;66.70;;;;;;604699;235;26843;-68
2022/04/13 01:10:44;;;;;;;3.47;3.17;;;8.00;67.40;;;;;;604834;238;26574;-68
2022/04/13 01:13:11;;;;;;;4.07;3.37;;;8.00;69.70;;;;;;605047;236;27084;-68
2022/04/13 01:15:39;;;;;;;3.72;3.42;;;8.00;66.50;;;;;;603468;237;26554;-68
2022/04/13 01:18:06;;;;;;;3.80;3.33;;;8.00;68.10;;;;;;601967;236;26615;-68
2022/04/13 01:20:34;;;;;;;3.92;3.17;;;8.00;66.60;;;;;;601834;238;26836;-67
2022/04/13 01:23:01;;;;;;;3.70;3.40;;;7.90;69.80;;;;;;610380;234;26614;-66
2022/04/13 01:25:28;;;;;;;4.75;3.37;;;7.90;69.70;;;;;;604796;232;26566;-67
2022/04/13 01:27:55;;;;;;;3.45;3.15;;;7.90;69.50;;;;;;604826;236;26558;-67
2022/04/13 01:30:24;;;;;;;4.62;3.60;;;7.90;69.30;;;;;;604962;238;26806;-67
2022/04/13 01:32:51;;;;;;;4.10;3.70;;;7.80;68.10;;;;;;602907;237;26610;-67
2022/04/13 01:35:18;;;;;;;4.30;3.87;;;7.80;69.00;;;;;;603648;235;26593;-67
2022/04/13 01:37:45;;;;;;;3.72;3.40;;;7.80;69.50;;;;;;608834;234;26568;-68
2022/04/13 01:40:12;;;;;;;4.10;3.60;;;7.90;68.40;;;;;;604548;237;26592;-68
2022/04/13 01:42:40;;;;;;;3.50;3.20;;;7.80;71.00;;;;;;604302;235;26862;-68
2022/04/13 01:45:07;;;;;;;3.58;3.28;;;7.80;68.70;;;;;;611170;230;26629;-68
2022/04/13 01:47:34;;;;;;;3.40;3.10;;;7.80;68.40;;;;;;609024;235;26618;-68
2022/04/13 01:50:01;;;;;;;4.80;3.70;;;7.80;67.80;;;;;;603144;238;26843;-68
2022/04/13 01:52:29;;;;;;;4.25;3.85;;;7.80;68.50;;;;;;608419;235;26626;-68
2022/04/13 01:54:56;;;;;;;4.00;3.42;;;7.70;69.30;;;;;;612364;235;26648;-68
2022/04/13 01:57:24;;;;;;;5.30;3.30;;;7.60;70.70;;;;;;609136;233;26652;-67
2022/04/13 01:59:51;;;;;;;4.70;3.60;;;7.60;70.60;;;;;;607512;235;26584;-68
2022/04/13 02:02:19;;;;;;;3.95;3.65;;;7.60;72.20;;;;;;608050;236;26602;-67
2022/04/13 02:04:48;;;;;;;3.97;3.20;;;7.60;70.00;;;;;;609084;235;26867;-67
2022/04/13 02:07:13;;;;;;;4.15;3.75;;;7.60;68.90;;;;;;603407;235;26690;-68
2022/04/13 02:09:41;;;;;;;5.60;3.58;;;7.60;69.10;;;;;;602049;238;26590;-68
2022/04/13 02:12:09;;;;;;;4.57;3.55;;;7.50;68.90;;;;;;602274;235;26790;-68
2022/04/13 02:14:36;;;;;;;5.62;3.28;;;7.50;68.50;;;;;;612556;234;26544;-67
2022/04/13 02:17:04;;;;;;;5.18;4.07;;;7.40;71.10;;;;;;612341;235;26924;-67
2022/04/13 02:19:32;;;;;;;4.18;3.33;;;7.40;71.10;;;;;;612325;234;26869;-67
2022/04/13 02:21:59;;;;;;;4.43;3.55;;;7.30;71.30;;;;;;604409;234;26604;-67
2022/04/13 02:24:27;;;;;;;4.12;3.47;;;7.30;71.40;;;;;;602929;236;26549;-67
2022/04/13 02:26:55;;;;;;;5.80;3.28;;;7.30;71.30;;;;;;601502;236;26702;-67
2022/04/13 02:29:22;;;;;;;3.37;2.92;;;7.30;70.80;;;;;;608559;236;26638;-67
2022/04/13 02:31:49;;;;;;;5.15;3.78;;;7.30;72.00;;;;;;605668;235;26856;-67
2022/04/13 02:34:17;;;;;;;4.18;3.53;;;7.20;71.00;;;;;;603598;236;26581;-67
2022/04/13 02:36:43;;;;;;;3.80;3.37;;;7.20;71.20;;;;;;601439;236;26650;-67
2022/04/13 02:39:11;;;;;;;4.55;3.90;;;7.20;69.90;;;;;;601519;238;26628;-67
2022/04/13 02:41:40;;;;;;;3.33;3.03;;;7.30;71.20;;;;;;608220;236;26580;-67
2022/04/13 02:44:07;;;;;;;5.47;3.95;;;7.20;72.90;;;;;;608771;235;26833;-67
2022/04/13 02:46:35;;;;;;;4.47;3.50;;;7.20;73.30;;;;;;606942;235;26633;-67
2022/04/13 02:49:03;;;;;;;4.80;3.92;;;7.20;75.10;;;;;;606270;234;26597;-67
2022/04/13 02:51:30;;;;;;;4.40;3.75;;;7.20;75.20;;;;;;605488;234;26821;-67
2022/04/13 02:53:58;;;;;;;3.95;3.65;;;7.20;72.40;;;;;;604118;234;26633;-68
2022/04/13 02:56:25;;;;;;;3.80;3.33;;;7.20;71.40;;;;;;604773;234;26833;-67
2022/04/13 02:58:52;;;;;;;5.05;3.87;;;7.20;74.70;;;;;;610665;235;26589;-67
2022/04/13 03:01:19;;;;;;;4.55;3.72;;;7.20;71.50;;;;;;606545;236;26576;-68
2022/04/13 03:03:47;;;;;;;4.32;3.80;;;7.10;74.70;;;;;;606766;236;26585;-67
2022/04/13 03:06:14;;;;;;;5.15;3.83;;;7.10;74.70;;;;;;602100;239;26612;-67
2022/04/13 03:08:42;;;;;;;4.10;3.10;;;7.10;74.60;;;;;;606687;236;26640;-67
2022/04/13 03:11:10;;;;;;;4.32;3.92;;;7.10;72.20;;;;;;607193;235;26811;-68
2022/04/13 03:13:37;;;;;;;4.75;3.87;;;7.10;72.10;;;;;;612706;235;26860;-66
2022/04/13 03:16:05;;;;;;;4.15;3.40;;;7.10;72.00;;;;;;612576;234;26600;-66
2022/04/13 03:18:32;;;;;;;4.82;3.67;;;7.00;71.80;;;;;;612684;234;26587;-66
2022/04/13 03:20:59;;;;;;;12.02;4.05;;;7.00;72.20;;;;;;609953;230;26934;-67
2022/04/13 03:23:26;;;;;;;7.97;3.78;;;7.00;71.90;;;;;;605417;236;26560;-68
2022/04/13 03:25:54;;;;;;;3.85;3.45;;;7.00;73.70;;;;;;602692;236;26824;-67
2022/04/13 03:28:23;;;;;;;4.40;3.22;;;7.00;72.60;;;;;;604103;235;26643;-68
2022/04/13 03:30:50;;;;;;;5.10;3.55;;;7.00;72.30;;;;;;601385;234;26634;-66
2022/04/13 03:33:18;;;;;;;5.12;3.30;;;7.00;71.30;;;;;;601218;237;26654;-67
2022/04/13 03:35:45;;;;;;;11.10;3.83;;;7.00;71.30;;;;;;602535;236;26889;-67
2022/04/13 03:38:13;;;;;;;4.22;3.40;;;7.00;72.10;;;;;;605221;236;26575;-67
2022/04/13 03:40:40;;;;;;;9.18;3.65;;;7.00;71.80;;;;;;609760;235;26823;-67
2022/04/13 03:43:07;;;;;;;10.05;4.05;;;7.00;72.40;;;;;;605212;235;26598;-67
2022/04/13 03:45:34;;;;;;;5.12;3.53;;;7.00;71.70;;;;;;603901;235;26818;-67
2022/04/13 03:48:02;;;;;;;3.95;3.30;;;6.90;72.20;;;;;;604594;237;26595;-67
2022/04/13 03:50:30;;;;;;;11.10;3.85;;;6.90;71.80;;;;;;608190;236;26610;-67
2022/04/13 03:52:58;;;;;;;6.60;3.42;;;6.90;78.00;;;;;;607360;235;26679;-67
2022/04/13 03:55:26;;;;;;;6.10;3.60;;;6.90;72.30;;;;;;601460;238;26868;-67
2022/04/13 03:57:53;;;;;;;6.12;3.08;;;6.90;72.30;;;;;;601530;239;27321;-67
2022/04/13 04:00:21;;;;;;;4.50;3.42;;;6.90;74.00;;;;;;603114;235;26632;-65
2022/04/13 04:02:48;;;;;;;5.47;3.22;;;6.90;72.90;;;;;;612369;232;26919;-68
2022/04/13 04:05:17;;;;;;;4.82;3.42;;;6.90;73.80;;;;;;607436;235;26599;-68
2022/04/13 04:07:43;;;;;;;4.50;3.35;;;6.90;73.80;;;;;;605365;236;26614;-67
2022/04/13 04:10:11;;;;;;;4.40;3.20;;;6.90;74.20;;;;;;605331;237;26594;-67
2022/04/13 04:12:38;;;;;;;4.05;3.58;;;6.90;72.80;;;;;;605144;237;27303;-67
2022/04/13 04:15:06;;;;;;;3.67;3.28;;;6.90;72.80;;;;;;605109;238;26851;-67
2022/04/13 04:17:33;;;;;;;6.97;3.20;;;6.90;72.20;;;;;;605214;234;26655;-67
2022/04/13 04:20:01;;;;;;;4.45;2.90;;;6.90;74.50;;;;;;604998;238;26658;-67
2022/04/13 04:22:29;;;;;;;3.83;3.42;;;6.90;78.00;;;;;;604901;237;26585;-66
2022/04/13 04:24:56;;;;;;;3.28;2.97;;;6.90;77.30;;;;;;604865;238;26804;-66
2022/04/13 04:27:23;;;;;;;5.05;3.40;;;6.90;74.80;;;;;;604871;238;26599;-66
2022/04/13 04:29:50;;;;;;;3.47;3.08;;;6.90;72.70;;;;;;604907;237;27087;-66
2022/04/13 04:32:18;;;;;;;3.28;2.97;;;6.90;76.60;;;;;;604922;238;26624;-66
2022/04/13 04:34:46;;;;;;;4.15;3.15;;;6.90;72.80;;;;;;604833;237;26578;-67
2022/04/13 04:37:14;;;;;;;3.60;3.03;;;6.90;74.30;;;;;;604792;234;26611;-67
2022/04/13 04:39:42;;;;;;;3.30;3.00;;;6.90;73.80;;;;;;604585;238;26599;-67
2022/04/13 04:42:09;;;;;;;4.25;3.15;;;6.90;73.10;;;;;;604567;238;26602;-67
2022/04/13 04:44:37;;;;;;;3.45;2.85;;;6.90;74.60;;;;;;604587;237;26555;-67
2022/04/13 04:47:04;;;;;;;3.50;3.17;;;6.90;73.70;;;;;;604580;234;26825;-68
2022/04/13 04:49:31;;;;;;;3.15;2.85;;;7.00;75.50;;;;;;604976;238;26810;-67
2022/04/13 04:51:59;;;;;;;3.65;2.90;;;7.00;73.10;;;;;;604973;238;26573;-67
2022/04/13 04:54:26;;;;;;;4.18;3.12;;;7.00;72.10;;;;;;604954;238;26555;-67
2022/04/13 04:56:54;;;;;;;3.97;3.30;;;7.10;73.10;;;;;;604943;238;26574;-68
2022/04/13 04:59:22;;;;;;;3.20;2.90;;;7.20;73.30;;;;;;604553;238;26587;-68
2022/04/13 05:01:49;;;;;;;3.30;3.03;;;7.20;73.60;;;;;;604631;237;26886;-68
2022/04/13 05:04:16;;;;;;;3.37;3.08;;;7.20;73.70;;;;;;604593;238;26588;-68
2022/04/13 05:06:43;;;;;;;3.37;3.08;;;7.20;72.90;;;;;;604577;234;27272;-67
2022/04/13 05:09:10;;;;;;;3.55;3.10;;;7.20;73.60;;;;;;604568;237;26567;-68
2022/04/13 05:11:38;;;;;;;3.20;2.90;;;7.30;72.10;;;;;;604578;237;26591;-67
2022/04/13 05:14:06;;;;;;;3.15;2.90;;;7.40;73.90;;;;;;605765;235;26569;-67
2022/04/13 05:16:34;;;;;;;4.22;2.97;;;7.40;73.10;;;;;;605774;237;26676;-68
2022/04/13 05:19:00;;;;;;;3.65;3.17;;;7.40;71.80;;;;;;605451;237;26593;-68
2022/04/13 05:21:27;;;;;;;3.53;3.08;;;7.50;72.80;;;;;;605428;237;26836;-68
2022/04/13 05:23:54;;;;;;;3.65;3.33;;;7.50;72.10;;;;;;605169;238;26670;-68
2022/04/13 05:26:22;;;;;;;3.12;2.90;;;7.60;71.90;;;;;;605160;232;26683;-67
2022/04/13 05:28:49;;;;;;;3.05;2.85;;;7.60;70.90;;;;;;605160;238;26857;-67
2022/04/13 05:31:16;;;;;;;2.87;2.65;;;7.70;72.30;;;;;;605029;238;26633;-67
2022/04/13 05:33:44;;;;;;;3.22;2.83;;;7.70;71.80;;;;;;604886;237;26808;-67
2022/04/13 05:36:12;;;;;;;3.78;3.30;;;7.90;70.50;;;;;;604869;233;26586;-67
2022/04/13 05:38:40;;;;;;;3.90;3.50;;;8.00;71.40;;;;;;604867;238;26596;-67
2022/04/13 05:41:08;;;;;;;3.60;3.30;;;8.10;72.00;;;;;;604917;237;26583;-67
2022/04/13 05:43:36;;;;;;;3.78;3.35;;;8.10;71.50;;;;;;604691;238;26820;-67
2022/04/13 05:46:02;;;;;;;3.95;3.10;;;8.10;71.30;;;;;;604831;234;26590;-67
2022/04/13 05:48:29;;;;;;;3.80;3.37;;;8.30;72.70;;;;;;605232;237;26830;-67
2022/04/13 05:50:59;;;;;;;4.57;3.17;;;8.50;73.30;;;;;;604581;238;26574;-68
2022/04/13 05:53:25;;;;;;;3.62;2.78;;;8.50;73.90;;;;;;604524;237;26575;-67
2022/04/13 05:55:56;;;;;;;4.32;3.20;;;8.70;70.60;;;;;;604579;237;26634;-68
2022/04/13 05:58:20;;;;;;;3.70;3.30;;;8.70;70.40;;;;;;604547;237;26812;-68
2022/04/13 06:00:47;;;;;;;4.12;3.08;;;8.80;69.30;;;;;;604537;238;26585;-67
2022/04/13 06:03:15;;;;;;;3.28;2.90;;;8.90;69.80;;;;;;604694;238;27301;-67
2022/04/13 06:05:43;;;;;;;4.80;2.87;;;9.10;69.10;;;;;;604620;234;26595;-68
2022/04/13 06:08:11;;;;;;;2.87;2.67;;;9.20;70.70;;;;;;606680;235;26629;-67
2022/04/13 06:10:38;;;;;;;3.53;2.72;;;9.40;69.90;;;;;;605451;236;26657;-68
2022/04/13 06:13:06;;;;;;;4.25;2.80;;;9.30;69.20;;;;;;602913;238;26826;-67
2022/04/13 06:15:33;;;;;;;3.72;3.05;;;9.40;69.30;;;;;;603985;236;26630;-67
2022/04/13 06:18:00;;;;;;;5.68;4.55;;;9.60;67.90;;;;;;602664;236;26872;-68
2022/04/13 06:20:27;;;;;;;5.22;4.68;;;9.60;66.70;;;;;;606050;235;26619;-68
2022/04/13 06:22:54;;;;;;;5.32;4.80;;;9.70;66.30;;;;;;603661;238;26598;-66
2022/04/13 06:25:23;;;;;;;5.97;4.47;;;9.90;67.30;;;;;;605487;234;26623;-67
2022/04/13 06:27:50;;;;;;;6.10;4.80;;;9.80;67.20;;;;;;606372;232;26583;-66
2022/04/13 06:30:17;;;;;;;6.35;4.87;;;9.90;64.70;;;;;;606770;234;26606;-67
2022/04/13 06:32:44;;;;;;;4.75;4.25;;;10.10;64.60;;;;;;606620;234;26838;-67
2022/04/13 06:35:12;;;;;;;6.43;3.97;;;10.10;67.00;;;;;;607417;235;26605;-67
2022/04/13 06:37:40;;;;;;;5.70;4.53;;;10.20;62.90;;;;;;605721;232;26633;-66
2022/04/13 06:40:08;;;;;;;5.47;4.82;;;10.20;63.20;;;;;;607805;235;26573;-67
2022/04/13 06:42:37;;;;;;;7.20;4.40;;;10.40;66.90;;;;;;607551;236;26580;-67
2022/04/13 06:45:03;;;;;;;6.72;4.80;;;10.40;63.90;;;;;;606772;235;26823;-67
2022/04/13 06:47:31;;;;;;;6.80;4.95;;;10.50;64.60;;;;;;607813;233;26662;-66
2022/04/13 06:49:59;;;;;;;6.55;4.60;;;10.60;62.50;;;;;;602361;236;26590;-66
2022/04/13 06:52:26;;;;;;;6.15;3.87;;;10.70;63.20;;;;;;606154;235;26567;-67
2022/04/13 06:54:54;;;;;;;6.07;4.10;;;10.80;64.50;;;;;;605287;236;26605;-68
2022/04/13 06:57:22;;;;;;;6.12;4.37;;;10.70;64.20;;;;;;604340;235;26613;-68
2022/04/13 06:59:49;;;;;;;4.78;4.30;;;10.90;62.40;;;;;;603463;236;26919;-70
2022/04/13 07:02:17;;;;;;;6.65;4.28;;;11.00;61.10;;;;;;604523;236;26591;-69
2022/04/13 07:04:44;;;;;;;6.47;4.75;;;11.10;63.00;;;;;;606952;235;26835;-69
2022/04/13 07:07:11;;;;;;;8.10;4.90;;;11.20;64.00;;;;;;609843;235;26638;-69
2022/04/13 07:09:39;;;;;;;5.93;4.50;;;11.50;61.10;;;;;;610522;235;26655;-68
2022/04/13 07:12:08;;;;;;;6.00;4.12;;;11.50;60.90;;;;;;605460;235;26655;-67
2022/04/13 07:14:35;;;;;;;6.43;4.65;;;11.50;61.00;;;;;;604346;235;26629;-68
2022/04/13 07:17:02;;;;;;;6.28;4.50;;;11.60;61.50;;;;;;603883;238;26876;-69
2022/04/13 07:19:30;;;;;;;4.90;4.40;;;11.70;60.60;;;;;;603971;235;26639;-69
2022/04/13 07:21:59;;;;;;;5.72;4.32;;;12.00;63.70;;;;;;606064;236;26564;-69
2022/04/13 07:24:27;;;;;;;5.85;4.40;;;12.20;62.50;;;;;;605812;236;26588;-69
2022/04/13 07:26:53;;;;;;;4.97;4.30;;;12.20;62.10;;;;;;605173;236;26930;-69
2022/04/13 07:29:20;;;;;;;5.78;5.00;;;12.40;62.50;;;;;;604046;238;26590;-70
2022/04/13 07:31:47;;;;;;;7.18;4.35;;;12.50;61.70;;;;;;602152;232;26882;-69
2022/04/13 07:34:15;;;;;;;5.55;4.10;;;12.70;59.80;;;;;;603289;238;26573;-69
2022/04/13 07:36:42;;;;;;;6.45;4.62;;;12.80;60.10;;;;;;602418;237;27026;-68
2022/04/13 07:39:09;;;;;;;6.60;4.70;;;12.90;58.80;;;;;;605200;237;26646;-69
2022/04/13 07:41:36;;;;;;;6.75;4.82;;;13.00;59.30;;;;;;606354;235;26835;-69
2022/04/13 07:44:03;;;;;;;5.68;4.97;;;13.00;58.40;;;;;;608798;235;26645;-69
2022/04/13 07:46:31;;;;;;;5.40;4.22;;;13.10;59.40;;;;;;603644;236;26876;-69
2022/04/13 07:48:58;;;;;;;5.47;4.50;;;13.20;58.50;;;;;;604296;238;26648;-69
2022/04/13 07:51:26;;;;;;;5.53;4.20;;;13.40;58.70;;;;;;605125;238;26660;-69
2022/04/13 07:53:53;;;;;;;5.35;4.35;;;13.50;59.10;;;;;;607008;235;26830;-69
2022/04/13 07:56:20;;;;;;;5.68;4.32;;;13.60;57.90;;;;;;607798;234;26655;-69
2022/04/13 07:58:48;;;;;;;6.57;4.47;;;13.70;57.50;;;;;;603698;238;27233;-69
2022/04/13 08:01:15;;;;;;;5.18;4.55;;;13.70;57.50;;;;;;604834;238;26826;-68
2022/04/13 08:03:43;;;;;;;5.12;4.45;;;13.80;58.50;;;;;;604210;238;26590;-68
2022/04/13 08:06:11;;;;;;;6.03;4.30;;;13.90;57.70;;;;;;604876;234;26608;-69
2022/04/13 08:08:38;;;;;;;5.12;4.12;;;14.20;57.70;;;;;;610071;236;26645;-68
2022/04/13 08:11:06;;;;;;;6.15;4.05;;;14.30;56.80;;;;;;604118;235;26581;-69
2022/04/13 08:13:34;;;;;;;6.72;4.95;;;14.40;59.50;;;;;;602002;236;26679;-69
2022/04/13 08:16:02;;;;;;;5.43;4.43;;;14.60;57.00;;;;;;603562;237;26600;-69
2022/04/13 08:18:29;;;;;;;4.60;3.92;;;14.50;56.50;;;;;;601915;237;26637;-69
2022/04/13 08:20:57;;;;;;;5.50;4.07;;;14.70;56.30;;;;;;601495;239;26629;-69
2022/04/13 08:23:24;;;;;;;5.12;3.92;;;14.80;57.30;;;;;;604578;236;26839;-67
2022/04/13 08:25:51;;;;;;;31.70;9.13;;;14.80;55.90;;;;;;607726;236;26608;-69
2022/04/13 08:28:18;;;;;;;49.75;12.02;;;14.80;57.60;;;;;;605115;236;26939;-69
2022/04/13 08:30:45;;;;;;;88.78;13.60;;;14.90;56.70;;;;;;604703;236;26611;-70
2022/04/13 08:33:12;;;;;;;1052.22;88.22;;;15.00;55.70;;;;;;603978;237;26818;-70
2022/04/13 08:35:40;;;;;;;6.30;5.00;;;15.00;55.70;;;;;;602006;238;26646;-70
2022/04/13 08:38:07;;;;;;;10.93;6.15;;;15.10;58.10;;;;;;603511;238;26641;-71
2022/04/13 08:40:34;;;;;;;6.72;4.70;;;15.10;56.00;;;;;;602984;238;26592;-70
2022/04/13 08:43:09;;;;;;;22.35;8.63;;;15.10;55.80;;;;;;601643;238;26645;-69
2022/04/13 08:45:35;;;;;;;49.78;15.10;;;15.10;55.20;;;;;;604817;235;26597;-70
2022/04/13 08:48:04;;;;;;;11.00;5.50;;;15.20;57.40;;;;;;607926;233;26598;-72
2022/04/13 08:50:31;;;;;;;7.07;3.83;;;15.20;57.30;;;;;;602883;236;26566;-71
2022/04/13 08:53:00;;;;;;;5.15;3.53;;;15.30;55.80;;;;;;603707;234;26561;-71
2022/04/13 08:55:27;;;;;;;15.02;6.50;;;15.10;55.90;;;;;;602342;239;26850;-71
2022/04/13 08:57:55;;;;;;;15.00;6.05;;;15.10;55.90;;;;;;602277;237;26624;-71
2022/04/13 09:00:22;;;;;;;11.30;5.05;;;15.10;55.90;;;;;;601570;239;26585;-70
2022/04/13 09:02:58;;;;;;;8.27;5.00;;;15.10;56.60;;;;;;601940;239;26585;-70
2022/04/13 09:05:26;;;;;;;4.43;3.97;;;15.10;56.10;;;;;;601382;237;26593;-71
2022/04/13 09:08:09;;;;;;;7.75;4.35;;;15.20;58.10;;;;;;601624;233;26907;-71
2022/04/13 09:10:36;;;;;;;8.73;4.70;;;15.30;55.80;;;;;;601849;237;26582;-71
2022/04/13 09:13:04;;;;;;;4.15;3.75;;;15.50;56.20;;;;;;601853;237;26601;-69
2022/04/13 09:15:31;;;;;;;4.47;3.85;;;15.50;56.20;;;;;;601782;237;26581;-69
2022/04/13 09:17:58;;;;;;;4.47;3.65;;;15.60;57.10;;;;;;601796;237;26560;-70
2022/04/13 09:20:26;;;;;;;4.70;3.83;;;15.60;55.50;;;;;;601706;237;26580;-70
2022/04/13 09:22:57;;;;;;;4.85;4.12;;;15.60;55.40;;;;;;601868;237;26586;-69
2022/04/13 09:25:22;;;;;;;4.62;3.37;;;15.70;56.20;;;;;;601360;239;26693;-71
2022/04/13 09:27:50;;;;;;;5.05;3.80;;;15.70;55.30;;;;;;601503;239;26653;-71
2022/04/13 09:30:18;;;;;;;4.30;3.75;;;15.70;55.50;;;;;;601534;237;26994;-71
2022/04/13 09:32:45;;;;;;;5.55;3.87;;;15.80;56.50;;;;;;601557;239;26874;-71
2022/04/13 09:35:13;;;;;;;5.87;4.28;;;16.00;54.80;;;;;;601527;237;26663;-70
2022/04/13 09:37:41;;;;;;;4.20;3.50;;;16.00;56.20;;;;;;601526;237;26690;-72
2022/04/13 09:40:10;;;;;;;4.72;3.95;;;16.10;55.90;;;;;;601589;239;26649;-72
2022/04/13 09:42:38;;;;;;;4.70;4.20;;;16.10;56.00;;;;;;601557;237;26642;-71
2022/04/13 09:45:07;;;;;;;5.85;3.97;;;16.20;55.30;;;;;;601013;239;26625;-72
2022/04/13 09:47:34;;;;;;;5.07;4.10;;;16.20;55.30;;;;;;601606;239;26689;-73
2022/04/13 09:50:01;;;;;;;5.55;4.15;;;16.30;55.60;;;;;;601583;239;26841;-71
2022/04/13 09:52:33;;;;;;;4.95;4.15;;;16.40;55.00;;;;;;601575;237;26621;-71
2022/04/13 09:55:00;;;;;;;5.00;3.55;;;16.40;56.10;;;;;;600780;238;27550;-70
2022/04/13 09:57:29;;;;;;;4.90;4.20;;;16.50;56.10;;;;;;601154;239;26889;-71
2022/04/13 09:59:55;;;;;;;4.62;3.92;;;16.60;55.10;;;;;;602405;237;26661;-71
2022/04/13 10:02:35;;;;;;;4.15;3.37;;;16.60;54.60;;;;;;603092;238;26813;-71
2022/04/13 10:05:01;;;;;;;4.43;3.75;;;16.70;55.80;;;;;;602786;237;26568;-72
2022/04/13 10:07:29;;;;;;;4.87;3.75;;;16.70;54.90;;;;;;602708;237;26864;-71
2022/04/13 10:09:56;;;;;;;5.15;4.68;;;16.70;54.40;;;;;;602521;239;26800;-72
2022/04/13 10:12:24;;;;;;;6.65;4.43;;;16.80;54.20;;;;;;602484;232;26553;-69
2022/04/13 10:14:52;;;;;;;4.22;3.67;;;16.90;54.70;;;;;;602446;237;26802;-69
2022/04/13 10:17:20;;;;;;;5.43;4.57;;;17.00;55.30;;;;;;602400;237;26577;-69
2022/04/13 10:19:51;;;;;;;5.70;4.45;;;17.10;55.00;;;;;;602003;237;26570;-69
2022/04/13 10:22:18;;;;;;;5.68;4.40;;;17.10;55.10;;;;;;601666;239;26594;-71
2022/04/13 10:24:46;;;;;;;6.12;4.25;;;17.30;54.90;;;;;;601769;237;26586;-72
2022/04/13 10:27:17;;;;;;;7.40;4.30;;;17.40;54.10;;;;;;601817;239;26593;-73
2022/04/13 10:29:44;;;;;;;5.30;4.75;;;17.30;53.90;;;;;;601628;239;26582;-73
2022/04/13 10:32:15;;;;;;;4.90;3.72;;;17.40;53.80;;;;;;601865;239;26831;-72
2022/04/13 10:34:51;;;;;;;5.68;4.37;;;17.50;54.40;;;;;;601567;239;26561;-72
2022/04/13 10:37:19;;;;;;;5.35;3.90;;;17.50;53.90;;;;;;601551;239;26913;-73
2022/04/13 10:39:46;;;;;;;4.87;4.30;;;17.60;53.50;;;;;;601476;237;26655;-72
2022/04/13 10:42:13;;;;;;;4.43;4.03;;;17.60;56.60;;;;;;601448;239;26866;-72
2022/04/13 10:44:53;;;;;;;4.87;3.95;;;17.70;54.10;;;;;;601574;237;26637;-72
2022/04/13 10:47:25;;;;;;;6.60;5.28;;;17.80;53.10;;;;;;601527;235;26626;-72
2022/04/13 10:49:54;;;;;;;5.65;4.70;;;17.90;53.70;;;;;;601119;235;26647;-71
2022/04/13 10:52:21;;;;;;;6.12;4.35;;;17.90;55.00;;;;;;601314;239;26638;-70
2022/04/13 10:54:49;;;;;;;6.10;4.68;;;18.00;53.40;;;;;;601128;239;26639;-71
2022/04/13 10:57:17;;;;;;;4.28;3.70;;;18.10;53.90;;;;;;601492;237;26653;-72
2022/04/13 10:59:48;;;;;;;5.50;5.00;;;18.20;55.40;;;;;;601413;239;26648;-71
2022/04/13 11:02:24;;;;;;;4.53;4.12;;;18.20;55.20;;;;;;601314;237;27058;-71
2022/04/13 11:04:49;;;;;;;5.65;4.00;;;18.30;53.60;;;;;;601213;239;26856;-71
2022/04/13 11:07:16;;;;;;;5.62;5.12;;;18.40;52.90;;;;;;601550;237;26646;-71
2022/04/13 11:09:43;;;;;;;7.50;6.47;;;18.40;53.70;;;;;;601521;237;26634;-72
2022/04/13 11:12:12;;;;;;;5.22;4.55;;;18.70;54.70;;;;;;602972;237;26653;-72
2022/04/13 11:14:57;;;;;;;4.15;3.50;;;18.80;53.50;;;;;;602737;237;26574;-72
2022/04/13 11:17:24;;;;;;;4.57;3.83;;;18.80;53.40;;;;;;602094;238;26856;-70
2022/04/13 11:19:51;;;;;;;5.40;4.25;;;18.80;53.90;;;;;;602545;239;26839;-71
2022/04/13 11:22:19;;;;;;;4.57;4.07;;;18.80;53.40;;;;;;602483;239;26551;-72
2022/04/13 11:24:58;;;;;;;5.37;4.28;;;18.90;53.40;;;;;;602468;237;26549;-72
2022/04/13 11:27:23;;;;;;;5.97;4.00;;;18.80;53.30;;;;;;602285;239;26576;-72
2022/04/13 11:30:00;;;;;;;3.78;3.20;;;18.90;52.60;;;;;;602267;239;26796;-71
2022/04/13 11:32:29;;;;;;;4.25;3.70;;;18.90;52.20;;;;;;602135;239;26557;-72
2022/04/13 11:34:58;;;;;;;3.60;3.30;;;19.00;54.30;;;;;;601708;239;26865;-72
2022/04/13 11:37:26;;;;;;;4.07;3.42;;;19.00;53.20;;;;;;602186;237;26581;-73
2022/04/13 11:39:56;;;;;;;6.93;4.90;;;19.00;52.10;;;;;;602017;239;26592;-72
2022/04/13 11:42:52;;;;;;;5.40;4.10;;;19.00;52.20;;;;;;601660;239;26608;-71
2022/04/13 11:45:20;;;;;;;5.53;4.15;;;19.10;53.80;;;;;;601884;237;26586;-71
2022/04/13 11:47:53;;;;;;;3.95;3.53;;;19.20;53.00;;;;;;601583;237;26637;-72
2022/04/13 11:50:20;;;;;;;4.82;4.35;;;19.20;52.20;;;;;;601293;239;26650;-72
2022/04/13 11:52:51;;;;;;;4.37;3.50;;;19.20;52.20;;;;;;601607;237;26604;-73
2022/04/13 11:55:25;;;;;;;4.07;3.45;;;19.40;52.40;;;;;;601579;237;26644;-72
2022/04/13 11:57:52;;;;;;;5.62;4.10;;;19.30;52.40;;;;;;601264;239;26874;-72
2022/04/13 12:00:32;;;;;;;6.22;5.15;;;19.50;52.50;;;;;;601181;239;26676;-71
2022/04/13 12:02:59;;;;;;;4.95;3.65;;;19.70;51.40;;;;;;601433;239;26645;-72
2022/04/13 12:05:27;;;;;;;7.18;3.87;;;19.80;51.10;;;;;;601509;239;26640;-77
2022/04/13 12:07:55;;;;;;;4.90;3.70;;;19.80;51.00;;;;;;601535;238;26584;-72
2022/04/13 12:10:23;;;;;;;4.03;3.45;;;20.20;51.40;;;;;;601142;235;26633;-71
2022/04/13 12:12:55;;;;;;;6.03;3.75;;;20.20;51.00;;;;;;601516;239;26642;-71
2022/04/13 12:15:21;;;;;;;4.75;3.97;;;20.20;51.00;;;;;;601444;237;26634;-70
2022/04/13 12:17:48;;;;;;;4.30;3.22;;;20.40;50.80;;;;;;601305;239;26880;-70
2022/04/13 12:20:27;;;;;;;6.00;4.18;;;20.60;50.90;;;;;;601565;237;26640;-70
2022/04/13 12:22:55;;;;;;;6.70;4.95;;;20.70;50.70;;;;;;602458;237;26636;-71
2022/04/13 12:25:22;;;;;;;6.00;4.87;;;21.10;52.40;;;;;;602821;238;26637;-70
2022/04/13 12:28:01;;;;;;;3.62;3.30;;;21.30;50.70;;;;;;602502;237;26606;-70
2022/04/13 12:30:28;;;;;;;3.85;3.40;;;21.20;50.60;;;;;;602426;239;26590;-72
2022/04/13 12:32:56;;;;;;;3.78;3.10;;;21.40;50.20;;;;;;602166;237;26577;-71
2022/04/13 12:35:23;;;;;;;8.10;6.93;;;21.50;50.20;;;;;;602131;237;26820;-71
2022/04/13 12:37:53;;;;;;;5.80;3.10;;;21.70;50.00;;;;;;602105;237;26606;-71
2022/04/13 12:40:21;;;;;;;3.95;3.58;;;21.80;49.70;;;;;;602044;239;26820;-72
2022/04/13 12:42:48;;;;;;;4.18;3.75;;;22.00;50.00;;;;;;601858;237;26590;-71
2022/04/13 12:45:16;;;;;;;4.80;3.40;;;22.30;48.60;;;;;;601807;237;26849;-71
2022/04/13 12:47:45;;;;;;;3.37;3.08;;;22.50;50.60;;;;;;601858;238;26615;-71
2022/04/13 12:50:12;;;;;;;3.78;3.22;;;22.80;49.00;;;;;;601890;237;27093;-71
2022/04/13 12:52:41;;;;;;;3.20;3.00;;;23.30;48.60;;;;;;601836;237;26590;-70
2022/04/13 12:55:09;;;;;;;4.85;3.67;;;23.60;47.60;;;;;;601749;237;26574;-70